Terminal Aerodrome Forecast
Issued by NWS Raleigh/Durham, NC

Home | Current Version | Previous Version | Text Only | Print | Product List | Glossary On
Versions: 1 2 3 4 5 6 7 8 9 10 11 12 13 14 15 16 17 18 19 20 21 22 23 24 25 26 27 28 29 30 31 32 33 34 35 36 37 38 39 40 41
000
FTUS42 KRAH 231741
TAFGSO
TAF
KGSO 231741Z 2318/2418 VRB03KT P6SM -RA BKN012 OVC025
     FM231930 08005KT 6SM -RA OVC006
     FM232100 07005KT 2SM RA BR OVC003
     FM240000 11009KT 2SM -RADZ OVC003 WS020/19050KT
     FM240800 21006KT P6SM BKN009 OVC012
     FM241600 21015G27KT P6SM SCT009 BKN025=

USA.gov is the U.S. government's official web portal to all federal, state and local government web resources and services.